createdAt,value
2023-12-05T00:02:23.070Z,-1.94
2023-12-05T00:04:50.077Z,-1.95
2023-12-05T00:07:20.604Z,-1.94
2023-12-05T00:09:48.910Z,-1.94
2023-12-05T00:12:19.014Z,-1.91
2023-12-05T00:14:46.860Z,-1.81
2023-12-05T00:17:13.966Z,-1.80
2023-12-05T00:19:40.875Z,-1.81
2023-12-05T00:22:10.916Z,-1.85
2023-12-05T00:24:37.901Z,-1.85
2023-12-05T00:27:05.306Z,-1.92
2023-12-05T00:29:32.154Z,-1.92
2023-12-05T00:31:59.227Z,-1.94
2023-12-05T00:34:27.280Z,-1.94
2023-12-05T00:36:54.518Z,-1.89
2023-12-05T00:39:21.907Z,-1.89
2023-12-05T00:41:54.594Z,-1.96
2023-12-05T00:44:21.596Z,-1.83
2023-12-05T00:46:48.841Z,-1.84
2023-12-05T00:49:18.715Z,-1.89
2023-12-05T00:51:47.326Z,-1.91
2023-12-05T00:54:15.866Z,-1.98
2023-12-05T00:56:43.051Z,-1.99
2023-12-05T00:59:13.261Z,-1.96
2023-12-05T01:01:40.358Z,-1.87
2023-12-05T01:04:07.838Z,-1.84
2023-12-05T01:06:35.114Z,-1.76
2023-12-05T01:09:07.706Z,-1.70
2023-12-05T01:11:37.960Z,-1.76
2023-12-05T01:14:06.989Z,-1.81
2023-12-05T01:16:34.336Z,-1.75
2023-12-05T01:19:01.903Z,-1.86
2023-12-05T01:21:29.773Z,-1.89
2023-12-05T01:23:56.652Z,-1.94
2023-12-05T01:26:27.136Z,-1.93
2023-12-05T01:28:56.255Z,-1.95
2023-12-05T01:31:24.087Z,-1.90
2023-12-05T01:33:51.229Z,-1.83
2023-12-05T01:36:21.305Z,-1.92
2023-12-05T01:38:48.156Z,-1.86
2023-12-05T01:41:15.349Z,-1.89
2023-12-05T01:43:44.941Z,-1.85
2023-12-05T01:46:12.835Z,-1.86
2023-12-05T01:48:41.736Z,-1.90
2023-12-05T01:51:10.446Z,-1.92
2023-12-05T01:53:40.434Z,-2.00
2023-12-05T01:56:09.741Z,-1.91
2023-12-05T01:58:38.516Z,-1.83
2023-12-05T02:01:09.309Z,-1.88
2023-12-05T02:03:37.242Z,-1.92
2023-12-05T02:06:05.268Z,-1.86
2023-12-05T02:08:33.542Z,-1.83
2023-12-05T02:11:00.971Z,-1.83
2023-12-05T02:13:27.834Z,-1.89
2023-12-05T02:16:04.828Z,-1.91
2023-12-05T02:18:40.718Z,-1.87
2023-12-05T02:21:20.992Z,-1.97
2023-12-05T02:24:11.747Z,-1.99
2023-12-05T02:26:58.863Z,-1.88
2023-12-05T02:29:28.344Z,-1.93
2023-12-05T02:31:56.309Z,-1.92
2023-12-05T02:34:23.365Z,-1.88
2023-12-05T02:37:05.303Z,-1.86
2023-12-05T02:39:42.572Z,-1.87
2023-12-05T02:42:13.169Z,-1.86
2023-12-05T02:44:51.359Z,-1.84
2023-12-05T02:47:23.421Z,-1.75
2023-12-05T02:49:51.544Z,-1.80
2023-12-05T02:52:18.611Z,-1.74
2023-12-05T02:54:45.523Z,-1.68
2023-12-05T02:57:12.841Z,-1.72
2023-12-05T02:59:39.655Z,-1.68
2023-12-05T03:02:06.766Z,-1.69
2023-12-05T03:04:33.729Z,-1.68
2023-12-05T03:07:01.066Z,-1.65
2023-12-05T03:09:28.262Z,-1.66
2023-12-05T03:11:55.311Z,-1.60
2023-12-05T03:14:22.576Z,-1.54
2023-12-05T03:16:54.267Z,-1.65
2023-12-05T03:19:25.867Z,-1.66
2023-12-05T03:21:57.192Z,-1.65
2023-12-05T03:24:27.029Z,-1.65
2023-12-05T03:26:55.442Z,-1.67
2023-12-05T03:29:22.275Z,-1.67
2023-12-05T03:31:49.499Z,-1.66
2023-12-05T03:34:19.447Z,-1.65
2023-12-05T03:36:46.650Z,-1.73
2023-12-05T03:39:13.573Z,-1.69
2023-12-05T03:41:41.074Z,-1.79
2023-12-05T03:44:10.471Z,-1.82
2023-12-05T03:46:37.828Z,-1.81
2023-12-05T03:49:04.808Z,-1.74
2023-12-05T03:51:31.954Z,-1.77
2023-12-05T03:53:58.797Z,-1.66
2023-12-05T03:56:26.930Z,-1.80
2023-12-05T03:58:53.915Z,-1.76
2023-12-05T04:01:20.982Z,-1.71
2023-12-05T04:03:48.003Z,-1.74
2023-12-05T04:06:22.950Z,-1.66
2023-12-05T04:08:50.915Z,-1.76
2023-12-05T04:11:30.417Z,-1.82
2023-12-05T04:13:57.388Z,-1.80
2023-12-05T04:16:25.145Z,-1.82
2023-12-05T04:18:52.663Z,-1.80
2023-12-05T04:21:22.441Z,-1.82
2023-12-05T04:23:50.473Z,-1.76
2023-12-05T04:26:22.124Z,-1.76
2023-12-05T04:28:48.995Z,-1.78
2023-12-05T04:31:16.584Z,-1.77
2023-12-05T04:33:46.690Z,-1.75
2023-12-05T04:36:17.189Z,-1.73
2023-12-05T04:38:46.906Z,-1.70
2023-12-05T04:41:18.407Z,-1.82
2023-12-05T04:43:46.868Z,-1.81
2023-12-05T04:46:17.006Z,-1.79
2023-12-05T04:48:45.071Z,-1.61
2023-12-05T04:51:12.554Z,-1.64
2023-12-05T04:53:42.295Z,-1.64
2023-12-05T04:56:10.081Z,-1.59
2023-12-05T04:58:37.176Z,-1.59
2023-12-05T05:01:08.019Z,-1.62
2023-12-05T05:03:34.973Z,-1.63
2023-12-05T05:06:02.284Z,-1.59
2023-12-05T05:08:29.144Z,-1.45
2023-12-05T05:10:56.254Z,-1.53
2023-12-05T05:13:23.119Z,-1.60
2023-12-05T05:15:50.182Z,-1.60
2023-12-05T05:18:17.409Z,-1.58
2023-12-05T05:20:47.600Z,-1.58
2023-12-05T05:23:14.390Z,-1.57
2023-12-05T05:25:42.508Z,-1.58
2023-12-05T05:28:15.117Z,-1.57
2023-12-05T05:30:44.077Z,-1.52
2023-12-05T05:33:11.059Z,-1.54
2023-12-05T05:35:38.115Z,-1.50
2023-12-05T05:38:05.117Z,-1.39
2023-12-05T05:40:34.791Z,-1.35
2023-12-05T05:43:01.944Z,-1.38
2023-12-05T05:45:29.105Z,-1.35
2023-12-05T05:47:59.073Z,-1.32
2023-12-05T05:50:31.463Z,-1.38
2023-12-05T05:52:58.281Z,-1.35
2023-12-05T05:55:27.367Z,-1.36
2023-12-05T05:57:57.260Z,-1.36
2023-12-05T06:00:25.702Z,-1.31
2023-12-05T06:02:55.432Z,-1.32
2023-12-05T06:05:22.638Z,-1.30
2023-12-05T06:07:49.512Z,-1.29
2023-12-05T06:10:17.583Z,-1.21
2023-12-05T06:12:44.360Z,-1.20
2023-12-05T06:15:11.716Z,-1.22
2023-12-05T06:17:38.518Z,-1.26
2023-12-05T06:20:06.983Z,-1.25
2023-12-05T06:22:33.778Z,-1.23
2023-12-05T06:25:01.209Z,-1.24
2023-12-05T06:27:31.072Z,-1.25
2023-12-05T06:30:03.549Z,-1.30
2023-12-05T06:32:36.667Z,-1.22
2023-12-05T06:35:03.934Z,-1.27
2023-12-05T06:37:30.743Z,-1.19
2023-12-05T06:39:58.285Z,-1.18
2023-12-05T06:42:26.173Z,-1.16
2023-12-05T06:44:53.653Z,-1.16
2023-12-05T06:47:20.499Z,-1.15
2023-12-05T06:49:48.414Z,-1.07
2023-12-05T06:52:16.454Z,-1.07
2023-12-05T06:54:46.937Z,-1.11
2023-12-05T06:57:16.424Z,-1.09
2023-12-05T06:59:43.633Z,-1.13
2023-12-05T07:02:13.431Z,-1.11
2023-12-05T07:04:40.658Z,-1.08
2023-12-05T07:07:09.026Z,-1.06
2023-12-05T07:09:36.444Z,-0.98
2023-12-05T07:12:03.257Z,-0.92
2023-12-05T07:14:30.350Z,-0.92
2023-12-05T07:17:04.554Z,-1.04
2023-12-05T07:19:31.688Z,-0.96
2023-12-05T07:22:01.549Z,-1.00
2023-12-05T07:24:28.727Z,-0.90
2023-12-05T07:27:00.651Z,-1.02
2023-12-05T07:29:28.341Z,-1.02
2023-12-05T07:31:56.298Z,-0.95
2023-12-05T07:34:23.473Z,-0.95
2023-12-05T07:36:50.341Z,-0.88
2023-12-05T07:39:17.555Z,-0.82
2023-12-05T07:41:44.515Z,-0.77
2023-12-05T07:44:11.717Z,-0.76
2023-12-05T07:46:43.372Z,-0.71
2023-12-05T07:49:10.866Z,-0.71
2023-12-05T07:51:38.699Z,-0.75
2023-12-05T07:54:06.575Z,-0.73
2023-12-05T07:56:33.661Z,-0.81
2023-12-05T07:59:03.327Z,-0.79
2023-12-05T08:01:33.667Z,-0.69
2023-12-05T08:04:04.016Z,-0.70
2023-12-05T08:06:31.085Z,-0.68
2023-12-05T08:08:58.357Z,-0.71
2023-12-05T08:11:28.030Z,-0.71
2023-12-05T08:13:55.375Z,-0.74
2023-12-05T08:16:22.448Z,-0.75
2023-12-05T08:18:52.665Z,-0.65
2023-12-05T08:21:19.765Z,-0.63
2023-12-05T08:23:46.967Z,-0.68
2023-12-05T08:26:16.997Z,-0.58
2023-12-05T08:28:46.988Z,-0.51
2023-12-05T08:31:13.940Z,-0.45
2023-12-05T08:33:41.251Z,-0.47
2023-12-05T08:36:08.492Z,-0.45
2023-12-05T08:38:36.945Z,-0.44
2023-12-05T08:41:04.351Z,-0.49
2023-12-05T08:43:31.474Z,-0.54
2023-12-05T08:46:00.001Z,-0.49
2023-12-05T08:48:27.268Z,-0.47
2023-12-05T08:50:54.466Z,-0.39
2023-12-05T08:53:21.903Z,-0.32
2023-12-05T08:55:48.677Z,-0.31
2023-12-05T08:58:17.257Z,-0.29
2023-12-05T09:00:45.177Z,-0.28
2023-12-05T09:03:15.615Z,-0.20
2023-12-05T09:05:42.618Z,-0.21
2023-12-05T09:08:09.957Z,-0.30
2023-12-05T09:10:42.732Z,-0.32
2023-12-05T09:13:09.848Z,-0.31
2023-12-05T09:15:36.743Z,-0.23
2023-12-05T09:18:04.952Z,-0.20
2023-12-05T09:20:32.287Z,-0.33
2023-12-05T09:23:01.748Z,-0.23
2023-12-05T09:25:29.097Z,-0.19
2023-12-05T09:27:56.266Z,-0.19
2023-12-05T09:30:23.572Z,-0.31
2023-12-05T09:32:50.883Z,-0.33
2023-12-05T09:35:20.867Z,-0.30
2023-12-05T09:37:54.736Z,-0.27
2023-12-05T09:40:24.207Z,-0.27
2023-12-05T09:42:59.512Z,-0.30
2023-12-05T09:45:34.919Z,-0.26
2023-12-05T09:48:05.232Z,-0.25
2023-12-05T09:50:35.932Z,-0.20
2023-12-05T09:53:04.099Z,-0.19
2023-12-05T09:55:31.115Z,-0.22
2023-12-05T09:57:58.689Z,-0.23
2023-12-05T10:00:26.605Z,-0.21
2023-12-05T10:02:56.065Z,-0.17
2023-12-05T10:05:25.370Z,-0.20
2023-12-05T10:07:56.632Z,-0.21
2023-12-05T10:10:25.347Z,-0.22
2023-12-05T10:12:53.207Z,-0.23
2023-12-05T10:15:23.862Z,-0.17
2023-12-05T10:17:51.448Z,-0.15
2023-12-05T10:20:18.944Z,-0.16
2023-12-05T10:22:46.196Z,-0.05
2023-12-05T10:25:16.104Z,0.00
2023-12-05T10:27:43.404Z,0.01
2023-12-05T10:30:10.787Z,0.05
2023-12-05T10:32:38.400Z,0.09
2023-12-05T10:35:06.081Z,0.21
2023-12-05T10:37:33.471Z,0.33
2023-12-05T10:40:00.891Z,0.33
2023-12-05T10:42:31.473Z,0.38
2023-12-05T10:44:58.669Z,0.42
2023-12-05T10:47:29.373Z,0.47
2023-12-05T10:49:56.599Z,0.55
2023-12-05T10:52:26.062Z,0.54
2023-12-05T10:54:58.048Z,0.50
2023-12-05T10:57:32.146Z,0.51
2023-12-05T11:00:00.047Z,0.65
2023-12-05T11:02:28.424Z,0.75
2023-12-05T11:04:59.379Z,0.76
2023-12-05T11:07:26.445Z,0.68
2023-12-05T11:09:53.346Z,0.62
2023-12-05T11:12:25.330Z,0.67
2023-12-05T11:14:56.564Z,0.61
2023-12-05T11:17:35.517Z,0.59
2023-12-05T11:20:17.191Z,0.65
2023-12-05T11:23:03.657Z,0.68
2023-12-05T11:25:30.494Z,0.75
2023-12-05T11:28:34.413Z,0.79
2023-12-05T11:31:33.237Z,0.75
2023-12-05T11:34:19.302Z,0.73
2023-12-05T11:37:20.691Z,0.68
2023-12-05T11:39:55.236Z,0.66
2023-12-05T11:42:22.787Z,0.80
2023-12-05T11:44:52.887Z,0.89
2023-12-05T11:47:30.297Z,0.88
2023-12-05T11:50:00.781Z,0.78
2023-12-05T11:52:29.389Z,0.75
2023-12-05T11:54:58.539Z,0.77
2023-12-05T11:57:27.019Z,0.76
2023-12-05T11:59:57.329Z,0.83
2023-12-05T12:02:33.347Z,0.79
2023-12-05T12:05:01.949Z,0.87
2023-12-05T12:07:29.269Z,0.92
2023-12-05T12:09:57.356Z,0.88
2023-12-05T12:12:25.465Z,0.95
2023-12-05T12:14:54.460Z,1.00
2023-12-05T12:17:24.366Z,0.99
2023-12-05T12:19:52.061Z,1.10
2023-12-05T12:22:21.415Z,1.11
2023-12-05T12:24:48.592Z,1.08
2023-12-05T12:27:15.489Z,1.09
2023-12-05T12:29:59.497Z,1.13
2023-12-05T12:32:26.735Z,1.10
2023-12-05T12:34:55.195Z,0.98
2023-12-05T12:39:53.054Z,0.94
2023-12-05T12:42:20.055Z,0.95
2023-12-05T12:44:47.898Z,0.91
2023-12-05T12:47:15.554Z,0.93
2023-12-05T12:49:43.750Z,0.97
2023-12-05T12:52:11.299Z,1.00
2023-12-05T12:54:38.935Z,0.97
2023-12-05T12:57:08.226Z,0.98
2023-12-05T12:59:35.416Z,0.97
2023-12-05T13:02:04.090Z,0.94
2023-12-05T13:04:37.889Z,0.90
2023-12-05T13:07:05.797Z,0.86
2023-12-05T13:09:33.280Z,0.81
2023-12-05T13:12:00.546Z,0.76
2023-12-05T13:14:27.965Z,0.75
2023-12-05T13:16:54.793Z,0.84
2023-12-05T13:19:32.333Z,0.83
2023-12-05T13:21:59.615Z,0.93
2023-12-05T13:24:28.405Z,1.01
2023-12-05T13:26:55.417Z,1.02
2023-12-05T13:29:22.575Z,1.04
2023-12-05T13:31:49.967Z,0.99
2023-12-05T13:34:17.272Z,1.10
2023-12-05T13:36:47.788Z,1.03
2023-12-05T13:39:16.669Z,0.90
2023-12-05T13:41:46.622Z,0.84
2023-12-05T13:44:15.834Z,0.84
2023-12-05T13:46:42.858Z,0.78
2023-12-05T13:49:15.363Z,0.77
2023-12-05T13:51:45.082Z,0.73
2023-12-05T13:54:13.355Z,0.58
2023-12-05T13:56:40.312Z,0.58
2023-12-05T13:59:07.409Z,0.59
2023-12-05T14:01:35.411Z,0.59
2023-12-05T14:04:05.777Z,0.62
2023-12-05T14:06:33.070Z,0.68
2023-12-05T14:09:00.230Z,0.81
2023-12-05T14:11:27.046Z,0.87
2023-12-05T14:13:54.145Z,0.88
2023-12-05T14:16:20.978Z,0.84
2023-12-05T14:18:48.559Z,0.75
2023-12-05T14:21:15.692Z,0.69
2023-12-05T14:23:45.558Z,0.68
2023-12-05T14:26:12.626Z,0.73
2023-12-05T14:28:40.347Z,0.81
2023-12-05T14:31:07.290Z,0.74
2023-12-05T14:33:35.796Z,0.71
2023-12-05T14:36:03.550Z,0.70
2023-12-05T14:38:33.050Z,0.62
2023-12-05T14:41:00.072Z,0.61
2023-12-05T14:43:27.695Z,0.63
2023-12-05T14:45:54.529Z,0.59
2023-12-05T14:48:25.148Z,0.57
2023-12-05T14:50:52.793Z,0.57
2023-12-05T14:53:19.892Z,0.69
2023-12-05T14:55:46.807Z,0.74
2023-12-05T14:58:14.369Z,0.70
2023-12-05T15:00:41.302Z,0.72
2023-12-05T15:03:08.800Z,0.68
2023-12-05T15:05:36.142Z,0.63
2023-12-05T15:08:04.817Z,0.61
2023-12-05T15:10:34.126Z,0.65
2023-12-05T15:13:01.269Z,0.71
2023-12-05T15:15:29.251Z,0.71
2023-12-05T15:17:56.462Z,0.75
2023-12-05T15:20:24.479Z,0.74
2023-12-05T15:22:52.432Z,0.72
2023-12-05T15:25:19.384Z,0.71
2023-12-05T15:27:46.806Z,0.67
2023-12-05T15:30:14.520Z,0.66
2023-12-05T15:32:53.483Z,0.70
2023-12-05T15:35:24.065Z,0.67
2023-12-05T15:37:51.667Z,0.71
2023-12-05T15:40:18.658Z,0.68
2023-12-05T15:42:52.955Z,0.73
2023-12-05T15:45:24.155Z,0.67
2023-12-05T15:47:51.451Z,0.67
2023-12-05T15:50:19.746Z,0.63
2023-12-05T15:52:51.035Z,0.65
2023-12-05T15:55:17.990Z,0.67
2023-12-05T15:57:45.781Z,0.65
2023-12-05T16:00:13.455Z,0.71
2023-12-05T16:02:42.647Z,0.63
2023-12-05T16:05:09.864Z,0.65
2023-12-05T16:07:37.667Z,0.68
2023-12-05T16:10:05.887Z,0.61
2023-12-05T16:12:33.113Z,0.64
2023-12-05T16:15:00.129Z,0.63
2023-12-05T16:17:27.322Z,0.56
2023-12-05T16:19:57.073Z,0.57
2023-12-05T16:22:24.841Z,0.54
2023-12-05T16:24:52.825Z,0.55
2023-12-05T16:27:25.423Z,0.51
2023-12-05T16:29:52.320Z,0.44
2023-12-05T16:32:19.577Z,0.43
2023-12-05T16:34:46.765Z,0.36
2023-12-05T16:37:14.579Z,0.35
2023-12-05T16:39:41.509Z,0.35
2023-12-05T16:42:11.924Z,0.35
2023-12-05T16:44:46.996Z,0.36
2023-12-05T16:47:14.632Z,0.40
2023-12-05T16:49:48.088Z,0.43
2023-12-05T16:52:18.083Z,0.46
2023-12-05T16:54:45.002Z,0.45
2023-12-05T16:57:13.166Z,0.41
2023-12-05T16:59:43.815Z,0.40
2023-12-05T17:02:14.246Z,0.42
2023-12-05T17:04:41.278Z,0.49
2023-12-05T17:07:11.135Z,0.51
2023-12-05T17:09:38.111Z,0.50
2023-12-05T17:12:11.775Z,0.48
2023-12-05T17:14:38.648Z,0.53
2023-12-05T17:17:05.799Z,0.58
2023-12-05T17:19:32.888Z,0.60
2023-12-05T17:22:01.165Z,0.54
2023-12-05T17:24:28.199Z,0.53
2023-12-05T17:26:55.489Z,0.52
2023-12-05T17:29:22.445Z,0.52
2023-12-05T17:31:49.535Z,0.59
2023-12-05T17:34:17.524Z,0.53
2023-12-05T17:36:47.754Z,0.55
2023-12-05T17:39:15.636Z,0.55
2023-12-05T17:41:43.438Z,0.58
2023-12-05T17:44:10.206Z,0.66
2023-12-05T17:46:37.472Z,0.62
2023-12-05T17:49:04.496Z,0.70
2023-12-05T17:51:31.922Z,0.71
2023-12-05T17:53:58.850Z,0.75
2023-12-05T17:56:26.109Z,0.69
2023-12-05T17:58:54.576Z,0.71
2023-12-05T18:01:21.817Z,0.71
2023-12-05T18:03:49.644Z,0.71
2023-12-05T18:06:20.248Z,0.81
2023-12-05T18:08:48.006Z,0.82
2023-12-05T18:11:17.545Z,0.82
2023-12-05T18:13:44.338Z,0.79
2023-12-05T18:16:14.676Z,0.72
2023-12-05T18:18:42.437Z,0.72
2023-12-05T18:21:12.285Z,0.78
2023-12-05T18:23:40.544Z,0.78
2023-12-05T18:26:11.256Z,0.72
2023-12-05T18:28:38.139Z,0.78
2023-12-05T18:31:14.258Z,0.76
2023-12-05T18:33:41.492Z,0.74
2023-12-05T18:36:11.935Z,0.78
2023-12-05T18:38:41.688Z,0.82
2023-12-05T18:41:08.799Z,0.85
2023-12-05T18:43:37.131Z,0.80
2023-12-05T18:46:05.070Z,0.77
2023-12-05T18:48:32.859Z,0.77
2023-12-05T18:51:01.106Z,0.78
2023-12-05T18:53:29.718Z,0.76
2023-12-05T18:56:01.384Z,0.72
2023-12-05T18:58:28.367Z,0.71
2023-12-05T19:00:55.509Z,0.67
2023-12-05T19:03:22.453Z,0.68
2023-12-05T19:05:51.115Z,0.66
2023-12-05T19:08:18.602Z,0.72
2023-12-05T19:10:45.970Z,0.73
2023-12-05T19:13:13.819Z,0.68
2023-12-05T19:15:40.850Z,0.70
2023-12-05T19:18:07.973Z,0.77
2023-12-05T19:20:35.224Z,0.74
2023-12-05T19:23:02.141Z,0.77
2023-12-05T19:25:29.348Z,0.74
2023-12-05T19:27:56.666Z,0.65
2023-12-05T19:30:24.020Z,0.70
2023-12-05T19:32:51.948Z,0.67
2023-12-05T19:35:19.094Z,0.64
2023-12-05T19:37:46.868Z,0.67
2023-12-05T19:40:13.972Z,0.62
2023-12-05T19:42:41.760Z,0.60
2023-12-05T19:45:09.242Z,0.66
2023-12-05T19:47:36.760Z,0.72
2023-12-05T19:50:04.415Z,0.68
2023-12-05T19:52:31.270Z,0.61
2023-12-05T19:54:58.491Z,0.58
2023-12-05T19:57:25.594Z,0.63
2023-12-05T19:59:52.744Z,0.64
2023-12-05T20:02:19.526Z,0.66
2023-12-05T20:04:47.403Z,0.66
2023-12-05T20:07:14.467Z,0.59
2023-12-05T20:09:42.248Z,0.55
2023-12-05T20:12:09.204Z,0.60
2023-12-05T20:14:36.561Z,0.54
2023-12-05T20:17:04.454Z,0.53
2023-12-05T20:19:31.721Z,0.48
2023-12-05T20:21:58.777Z,0.50
2023-12-05T20:24:26.074Z,0.49
2023-12-05T20:26:53.323Z,0.49
2023-12-05T20:29:20.399Z,0.51
2023-12-05T20:31:47.202Z,0.50
2023-12-05T20:34:14.399Z,0.50
2023-12-05T20:36:41.751Z,0.53
2023-12-05T20:39:10.404Z,0.52
2023-12-05T20:41:37.298Z,0.54
2023-12-05T20:44:04.824Z,0.52
2023-12-05T20:46:31.770Z,0.48
2023-12-05T20:48:58.993Z,0.49
2023-12-05T20:51:25.915Z,0.53
2023-12-05T20:53:54.679Z,0.51
2023-12-05T20:56:24.728Z,0.52
2023-12-05T20:58:51.854Z,0.55
2023-12-05T21:01:19.988Z,0.58
2023-12-05T21:03:47.621Z,0.52
2023-12-05T21:06:14.663Z,0.54
2023-12-05T21:09:10.004Z,0.50
2023-12-05T21:11:28.711Z,0.46
2023-12-05T21:13:56.150Z,0.48
2023-12-05T21:16:23.086Z,0.45
2023-12-05T21:18:50.999Z,0.46
2023-12-05T21:21:18.774Z,0.42
2023-12-05T21:23:46.289Z,0.49
2023-12-05T21:26:15.448Z,0.50
2023-12-05T21:28:42.633Z,0.54
2023-12-05T21:31:10.277Z,0.50
2023-12-05T21:33:37.773Z,0.47
2023-12-05T21:36:05.154Z,0.51
2023-12-05T21:38:32.402Z,0.57
2023-12-05T21:40:59.347Z,0.51
2023-12-05T21:43:28.019Z,0.43
2023-12-05T21:45:57.376Z,0.46
2023-12-05T21:48:25.065Z,0.51
2023-12-05T21:50:51.969Z,0.47
2023-12-05T21:53:19.145Z,0.50
2023-12-05T21:55:45.972Z,0.44
2023-12-05T21:58:13.225Z,0.50
2023-12-05T22:00:40.194Z,0.54
2023-12-05T22:03:07.335Z,0.55
2023-12-05T22:05:34.206Z,0.59
2023-12-05T22:08:01.292Z,0.59
2023-12-05T22:10:28.132Z,0.61
2023-12-05T22:12:55.277Z,0.66
2023-12-05T22:15:22.340Z,0.61
2023-12-05T22:17:50.441Z,0.59
2023-12-05T22:20:17.724Z,0.59
2023-12-05T22:22:45.003Z,0.60
2023-12-05T22:25:12.126Z,0.51
2023-12-05T22:27:39.350Z,0.53
2023-12-05T22:30:07.239Z,0.51
2023-12-05T22:32:34.680Z,0.58
2023-12-05T22:35:01.653Z,0.55
2023-12-05T22:37:28.872Z,0.53
2023-12-05T22:39:55.920Z,0.54
2023-12-05T22:42:24.709Z,0.53
2023-12-05T22:44:51.623Z,0.50
2023-12-05T22:47:19.013Z,0.46
2023-12-05T22:49:48.705Z,0.45
2023-12-05T22:52:16.086Z,0.43
2023-12-05T22:54:42.976Z,0.26
2023-12-05T22:57:10.229Z,0.33
2023-12-05T22:59:38.401Z,0.31
2023-12-05T23:02:05.520Z,0.43
2023-12-05T23:04:32.478Z,0.34
2023-12-05T23:06:59.595Z,0.34
2023-12-05T23:09:26.410Z,0.37
2023-12-05T23:11:53.536Z,0.37
2023-12-05T23:14:20.397Z,0.42
2023-12-05T23:16:47.517Z,0.40
2023-12-05T23:19:14.692Z,0.41
2023-12-05T23:21:42.117Z,0.40
2023-12-05T23:24:09.071Z,0.46
2023-12-05T23:26:36.183Z,0.33
2023-12-05T23:29:03.070Z,0.16
2023-12-05T23:31:30.165Z,0.12
2023-12-05T23:33:57.074Z,0.16
2023-12-05T23:36:24.213Z,0.24
2023-12-05T23:38:51.660Z,0.15
2023-12-05T23:41:18.810Z,0.22
2023-12-05T23:43:45.647Z,0.26
2023-12-05T23:46:15.672Z,0.12
2023-12-05T23:48:42.773Z,0.16
2023-12-05T23:51:09.934Z,0.22
2023-12-05T23:53:37.237Z,0.19
2023-12-05T23:56:04.554Z,0.30
2023-12-05T23:58:31.324Z,0.26
